createdAt,value
2022-12-27T00:01:50.083Z,1.50
2022-12-27T00:04:35.351Z,2.00
2022-12-27T00:07:20.944Z,2.40
2022-12-27T00:10:07.863Z,2.80
2022-12-27T00:12:53.341Z,2.72
2022-12-27T00:15:38.713Z,2.90
2022-12-27T00:18:24.269Z,3.00
2022-12-27T00:21:11.963Z,3.10
2022-12-27T00:23:57.962Z,2.70
2022-12-27T00:26:43.334Z,2.40
2022-12-27T00:29:28.869Z,2.47
2022-12-27T00:32:14.669Z,2.92
2022-12-27T00:35:00.058Z,1.80
2022-12-27T00:37:45.717Z,2.30
2022-12-27T00:40:31.315Z,1.45
2022-12-27T00:43:17.030Z,1.90
2022-12-27T00:46:02.917Z,1.25
2022-12-27T00:48:48.338Z,1.63
2022-12-27T00:51:33.845Z,1.92
2022-12-27T00:54:19.407Z,2.10
2022-12-27T00:57:05.075Z,2.17
2022-12-27T00:59:50.497Z,1.70
2022-12-27T01:02:36.200Z,1.60
2022-12-27T01:05:22.201Z,1.70
2022-12-27T01:08:07.539Z,1.58
2022-12-27T01:10:52.929Z,1.63
2022-12-27T01:13:39.571Z,3.50
2022-12-27T01:16:26.130Z,1.75
2022-12-27T01:19:11.368Z,1.80
2022-12-27T01:21:56.907Z,1.83
2022-12-27T01:24:42.231Z,1.60
2022-12-27T01:27:27.918Z,2.03
2022-12-27T01:30:13.337Z,1.83
2022-12-27T01:32:58.937Z,1.85
2022-12-27T01:35:44.697Z,1.90
2022-12-27T01:38:30.487Z,2.15
2022-12-27T01:41:38.017Z,2.33
2022-12-27T01:44:54.107Z,2.15
2022-12-27T01:47:51.465Z,1.48
2022-12-27T01:50:45.986Z,2.15
2022-12-27T01:53:35.020Z,2.00
2022-12-27T01:56:25.487Z,2.38
2022-12-27T01:59:12.719Z,3.00
2022-12-27T02:01:58.310Z,3.10
2022-12-27T02:04:44.256Z,3.00
2022-12-27T02:07:38.917Z,2.70
2022-12-27T02:10:24.865Z,2.95
2022-12-27T02:13:10.674Z,2.53
2022-12-27T02:15:56.235Z,2.83
2022-12-27T02:18:42.225Z,2.45
2022-12-27T02:22:15.775Z,2.47
2022-12-27T02:25:10.109Z,2.40
2022-12-27T02:28:49.466Z,2.28
2022-12-27T02:31:44.369Z,2.05
2022-12-27T02:34:43.907Z,2.15
2022-12-27T02:37:32.084Z,3.25
2022-12-27T02:40:37.840Z,2.53
2022-12-27T02:43:52.481Z,2.47
2022-12-27T02:46:56.353Z,2.45
2022-12-27T02:50:02.559Z,2.20
2022-12-27T02:53:04.125Z,2.15
2022-12-27T02:56:21.955Z,2.17
2022-12-27T02:59:25.255Z,2.08
2022-12-27T03:02:48.935Z,2.60
2022-12-27T03:06:19.149Z,2.67
2022-12-27T03:09:44.322Z,2.28
2022-12-27T03:12:54.955Z,2.40
2022-12-27T03:16:12.495Z,2.97
2022-12-27T03:19:10.425Z,2.85
2022-12-27T03:22:14.376Z,3.17
2022-12-27T03:25:19.483Z,2.88
2022-12-27T03:28:30.765Z,2.35
2022-12-27T03:31:49.133Z,2.53
2022-12-27T03:34:39.997Z,2.90
2022-12-27T03:37:49.717Z,3.00
2022-12-27T03:41:11.301Z,2.58
2022-12-27T03:43:56.791Z,2.63
2022-12-27T03:46:43.530Z,2.35
2022-12-27T03:49:48.616Z,2.50
2022-12-27T03:52:39.260Z,2.30
2022-12-27T03:55:29.944Z,2.60
2022-12-27T03:58:18.525Z,3.17
2022-12-27T04:01:04.304Z,3.83
2022-12-27T04:03:49.599Z,2.88
2022-12-27T04:06:35.164Z,1.88
2022-12-27T04:09:39.576Z,1.70
2022-12-27T04:12:43.423Z,2.55
2022-12-27T04:15:47.649Z,2.13
2022-12-27T04:18:51.332Z,1.90
2022-12-27T04:21:55.354Z,2.05
2022-12-27T04:24:59.195Z,2.17
2022-12-27T04:28:02.849Z,1.85
2022-12-27T04:31:07.012Z,2.25
2022-12-27T04:34:11.229Z,2.20
2022-12-27T04:36:56.805Z,2.33
2022-12-27T04:40:03.425Z,2.80
2022-12-27T04:43:07.208Z,2.13
2022-12-27T04:46:11.445Z,1.98
2022-12-27T04:49:15.142Z,2.20
2022-12-27T04:52:19.081Z,2.47
2022-12-27T04:55:22.424Z,2.50
2022-12-27T04:58:07.875Z,2.38
2022-12-27T05:01:14.445Z,2.28
2022-12-27T05:04:01.388Z,2.40
2022-12-27T05:06:46.908Z,2.50
2022-12-27T05:09:50.743Z,2.70
2022-12-27T05:12:54.590Z,2.50
2022-12-27T05:15:40.142Z,3.17
2022-12-27T05:18:25.526Z,2.97
2022-12-27T05:21:11.119Z,3.03
2022-12-27T05:24:14.828Z,2.70
2022-12-27T05:27:00.131Z,2.60
2022-12-27T05:29:46.721Z,3.38
2022-12-27T05:32:32.282Z,2.92
2022-12-27T05:35:17.704Z,3.08
2022-12-27T05:38:03.798Z,3.05
2022-12-27T05:40:49.264Z,2.30
2022-12-27T05:43:35.053Z,2.42
2022-12-27T05:46:22.157Z,2.45
2022-12-27T05:49:07.682Z,2.38
2022-12-27T05:51:53.171Z,1.90
2022-12-27T05:54:38.681Z,2.47
2022-12-27T05:57:24.435Z,2.15
2022-12-27T06:00:11.930Z,3.15
2022-12-27T06:02:57.396Z,2.35
2022-12-27T06:05:42.852Z,1.92
2022-12-27T06:08:29.087Z,2.30
2022-12-27T06:11:17.419Z,2.50
2022-12-27T06:14:03.094Z,2.00
2022-12-27T06:16:48.704Z,2.40
2022-12-27T06:19:34.184Z,2.33
2022-12-27T06:22:19.666Z,2.38
2022-12-27T06:25:07.880Z,1.90
2022-12-27T06:27:56.343Z,2.30
2022-12-27T06:30:41.927Z,2.97
2022-12-27T06:33:27.577Z,2.63
2022-12-27T06:36:14.970Z,2.08
2022-12-27T06:39:00.535Z,1.73
2022-12-27T06:41:46.664Z,2.38
2022-12-27T06:44:31.853Z,2.05
2022-12-27T06:47:17.325Z,2.08
2022-12-27T06:50:04.292Z,2.20
2022-12-27T06:52:50.819Z,2.45
2022-12-27T06:55:36.394Z,2.53
2022-12-27T06:58:21.924Z,1.80
2022-12-27T07:01:22.010Z,1.90
2022-12-27T07:04:07.856Z,2.88
2022-12-27T07:06:53.377Z,2.55
2022-12-27T07:09:38.823Z,2.53
2022-12-27T07:12:24.456Z,2.42
2022-12-27T07:15:10.223Z,2.10
2022-12-27T07:17:55.627Z,2.47
2022-12-27T07:20:40.992Z,3.30
2022-12-27T07:23:26.621Z,3.40
2022-12-27T07:26:20.389Z,2.42
2022-12-27T07:29:05.717Z,2.60
2022-12-27T07:31:51.137Z,3.30
2022-12-27T07:34:36.677Z,2.65
2022-12-27T07:37:22.194Z,2.83
2022-12-27T07:40:08.340Z,2.80
2022-12-27T07:42:54.026Z,2.08
2022-12-27T07:45:39.498Z,2.80
2022-12-27T07:48:24.793Z,3.80
2022-12-27T07:51:10.926Z,2.53
2022-12-27T07:53:56.349Z,3.28
2022-12-27T07:56:41.856Z,2.65
2022-12-27T07:59:27.668Z,2.85
2022-12-27T08:02:13.857Z,2.70
2022-12-27T08:05:00.966Z,2.33
2022-12-27T08:07:46.573Z,2.15
2022-12-27T08:10:33.997Z,2.55
2022-12-27T08:13:19.087Z,2.63
2022-12-27T08:16:05.143Z,2.63
2022-12-27T08:18:51.073Z,3.20
2022-12-27T08:21:36.423Z,3.30
2022-12-27T08:24:23.266Z,3.35
2022-12-27T08:27:09.453Z,3.08
2022-12-27T08:29:54.623Z,2.90
2022-12-27T08:32:40.216Z,3.05
2022-12-27T08:35:51.434Z,4.07
2022-12-27T08:38:31.252Z,4.10
2022-12-27T08:41:20.931Z,3.15
2022-12-27T08:44:07.198Z,3.97
2022-12-27T08:46:52.609Z,2.47
2022-12-27T08:49:37.808Z,2.95
2022-12-27T08:52:23.215Z,2.90
2022-12-27T08:55:09.047Z,3.03
2022-12-27T08:58:02.792Z,3.60
2022-12-27T09:00:48.515Z,3.15
2022-12-27T09:03:34.520Z,4.38
2022-12-27T09:06:25.674Z,3.30
2022-12-27T09:09:10.979Z,4.53
2022-12-27T09:11:57.300Z,3.75
2022-12-27T09:14:43.202Z,3.40
2022-12-27T09:17:28.473Z,2.75
2022-12-27T09:20:13.900Z,3.50
2022-12-27T09:22:59.607Z,3.90
2022-12-27T09:25:45.159Z,3.25
2022-12-27T09:28:30.622Z,3.35
2022-12-27T09:31:17.334Z,3.22
2022-12-27T09:34:09.246Z,3.30
2022-12-27T09:36:54.581Z,2.50
2022-12-27T09:39:39.915Z,3.05
2022-12-27T09:43:10.506Z,3.13
2022-12-27T09:45:48.346Z,3.38
2022-12-27T09:48:39.162Z,2.67
2022-12-27T09:51:33.008Z,2.22
2022-12-27T09:54:37.867Z,2.72
2022-12-27T09:57:36.506Z,2.90
2022-12-27T10:00:34.566Z,2.83
2022-12-27T10:03:24.744Z,3.03
2022-12-27T10:06:27.504Z,2.78
2022-12-27T10:09:31.590Z,3.00
2022-12-27T10:12:32.113Z,3.08
2022-12-27T10:15:44.021Z,3.17
2022-12-27T10:18:29.437Z,3.65
2022-12-27T10:21:22.229Z,3.65
2022-12-27T10:27:00.105Z,3.33
2022-12-27T10:29:45.566Z,2.80
2022-12-27T10:32:31.209Z,3.95
2022-12-27T10:35:20.173Z,3.17
2022-12-27T10:38:10.530Z,2.63
2022-12-27T10:41:07.779Z,3.33
2022-12-27T10:43:54.707Z,2.90
2022-12-27T10:46:42.593Z,2.60
2022-12-27T10:49:35.002Z,3.10
2022-12-27T10:52:22.749Z,3.80
2022-12-27T10:55:38.251Z,2.80
2022-12-27T10:58:26.553Z,3.05
2022-12-27T11:01:25.277Z,2.80
2022-12-27T11:04:24.161Z,3.15
2022-12-27T11:07:18.920Z,2.80
2022-12-27T11:10:19.946Z,3.90
2022-12-27T11:13:07.007Z,3.08
2022-12-27T11:15:59.030Z,3.75
2022-12-27T11:18:51.368Z,3.80
2022-12-27T11:21:38.456Z,3.30
2022-12-27T11:24:23.898Z,2.70
2022-12-27T11:27:23.938Z,3.30
2022-12-27T11:30:22.305Z,3.33
2022-12-27T11:33:24.705Z,3.22
2022-12-27T11:36:11.953Z,3.00
2022-12-27T11:38:57.966Z,2.72
2022-12-27T11:41:51.617Z,3.22
2022-12-27T11:44:40.879Z,3.20
2022-12-27T11:47:35.693Z,2.70
2022-12-27T11:50:27.358Z,2.65
2022-12-27T11:53:21.373Z,3.60
2022-12-27T11:56:26.740Z,3.00
2022-12-27T11:59:27.564Z,3.08
2022-12-27T12:02:39.946Z,3.70
2022-12-27T12:05:45.837Z,3.47
2022-12-27T12:09:16.157Z,3.25
2022-12-27T12:12:18.566Z,3.53
2022-12-27T12:15:06.966Z,2.70
2022-12-27T12:18:08.065Z,3.25
2022-12-27T12:21:05.608Z,3.20
2022-12-27T12:23:59.590Z,3.28
2022-12-27T12:27:08.655Z,3.67
2022-12-27T12:30:14.232Z,4.03
2022-12-27T12:33:24.021Z,3.22
2022-12-27T12:36:18.482Z,3.10
2022-12-27T12:39:41.922Z,3.67
2022-12-27T12:45:40.644Z,3.20
2022-12-27T12:48:50.366Z,3.20
2022-12-27T12:51:47.036Z,3.20
2022-12-27T12:54:37.997Z,3.30
2022-12-27T12:57:45.878Z,2.80
2022-12-27T13:00:43.274Z,2.83
2022-12-27T13:04:01.981Z,3.47
2022-12-27T13:07:05.140Z,3.05
2022-12-27T13:10:18.966Z,4.00
2022-12-27T13:13:22.269Z,4.25
2022-12-27T13:16:07.672Z,4.68
2022-12-27T13:19:23.023Z,3.55
2022-12-27T13:22:17.126Z,3.67
2022-12-27T13:25:20.963Z,4.05
2022-12-27T13:28:31.407Z,4.28
2022-12-27T13:31:25.303Z,5.40
2022-12-27T13:34:47.770Z,6.03
2022-12-27T13:37:58.295Z,4.93
2022-12-27T13:41:03.190Z,5.72
2022-12-27T13:44:19.437Z,4.95
2022-12-27T13:47:12.945Z,3.80
2022-12-27T13:50:26.181Z,4.32
2022-12-27T13:53:23.831Z,3.45
2022-12-27T14:00:02.613Z,3.13
2022-12-27T14:03:12.984Z,4.10
2022-12-27T14:06:27.603Z,3.75
2022-12-27T14:09:29.908Z,3.97
2022-12-27T14:12:42.547Z,3.65
2022-12-27T14:15:37.078Z,3.45
2022-12-27T14:18:40.735Z,3.30
2022-12-27T14:21:50.421Z,3.85
2022-12-27T14:24:53.095Z,3.85
2022-12-27T14:28:10.535Z,5.10
2022-12-27T14:31:18.840Z,4.63
2022-12-27T14:34:33.655Z,3.83
2022-12-27T14:37:55.708Z,4.13
2022-12-27T14:40:46.869Z,3.90
2022-12-27T14:43:50.579Z,4.13
2022-12-27T14:46:36.181Z,4.28
2022-12-27T14:50:07.680Z,4.28
2022-12-27T14:53:02.228Z,4.10
2022-12-27T14:55:47.567Z,3.75
2022-12-27T14:58:53.900Z,3.60
2022-12-27T15:01:44.617Z,3.30
2022-12-27T15:04:44.215Z,3.30
2022-12-27T15:08:23.035Z,4.47
2022-12-27T15:11:35.908Z,3.13
2022-12-27T15:14:42.281Z,3.30
2022-12-27T15:18:06.070Z,4.70
2022-12-27T15:21:24.908Z,5.13
2022-12-27T15:24:19.082Z,5.00
2022-12-27T15:27:35.071Z,5.75
2022-12-27T15:30:24.232Z,4.70
2022-12-27T15:33:34.307Z,4.47
2022-12-27T15:36:21.272Z,4.90
2022-12-27T15:39:22.262Z,3.08
2022-12-27T15:42:24.271Z,4.38
2022-12-27T15:45:23.373Z,4.33
2022-12-27T15:48:27.168Z,5.30
2022-12-27T15:51:40.297Z,4.15
2022-12-27T15:54:53.339Z,3.50
2022-12-27T15:57:54.373Z,3.72
2022-12-27T16:00:40.036Z,4.10
2022-12-27T16:03:36.591Z,4.20
2022-12-27T16:06:34.631Z,4.80
2022-12-27T16:09:26.306Z,4.90
2022-12-27T16:12:15.718Z,4.95
2022-12-27T16:15:32.140Z,4.88
2022-12-27T16:18:23.397Z,5.30
2022-12-27T16:21:21.478Z,4.40
2022-12-27T16:24:17.073Z,4.80
2022-12-27T16:27:05.575Z,4.68
2022-12-27T16:29:51.282Z,4.22
2022-12-27T16:32:36.979Z,5.22
2022-12-27T16:35:23.563Z,5.47
2022-12-27T16:38:21.277Z,5.43
2022-12-27T16:41:31.392Z,4.95
2022-12-27T16:44:25.897Z,5.57
2022-12-27T16:47:32.248Z,4.75
2022-12-27T16:50:48.919Z,4.70
2022-12-27T16:53:57.923Z,6.28
2022-12-27T16:56:48.069Z,5.00
2022-12-27T17:00:11.314Z,4.93
2022-12-27T17:06:21.626Z,5.03
2022-12-27T17:09:10.746Z,4.90
2022-12-27T17:11:56.375Z,5.65
2022-12-27T17:14:42.157Z,5.35
2022-12-27T17:17:27.920Z,4.13
2022-12-27T17:20:18.722Z,4.22
2022-12-27T17:23:05.022Z,4.57
2022-12-27T17:26:02.843Z,4.55
2022-12-27T17:29:20.035Z,4.78
2022-12-27T17:32:27.056Z,4.60
2022-12-27T17:35:36.894Z,4.78
2022-12-27T17:38:38.669Z,4.93
2022-12-27T17:41:55.451Z,3.90
2022-12-27T17:44:59.709Z,4.13
2022-12-27T17:48:14.047Z,5.60
2022-12-27T17:51:06.167Z,4.40
2022-12-27T17:54:12.065Z,4.50
2022-12-27T17:57:18.473Z,4.32
2022-12-27T18:00:06.484Z,4.32
2022-12-27T18:02:53.645Z,4.95
2022-12-27T18:05:41.816Z,4.38
2022-12-27T18:08:30.304Z,4.75
2022-12-27T18:11:15.857Z,4.30
2022-12-27T18:14:01.536Z,4.82
2022-12-27T18:16:47.783Z,3.72
2022-12-27T18:19:33.326Z,3.50
2022-12-27T18:22:19.309Z,4.43
2022-12-27T18:25:25.263Z,4.18
2022-12-27T18:28:18.887Z,4.05
2022-12-27T18:31:25.983Z,4.38
2022-12-27T18:34:18.353Z,4.82
2022-12-27T18:37:12.257Z,5.03
2022-12-27T18:40:04.622Z,4.72
2022-12-27T18:42:51.477Z,5.03
2022-12-27T18:45:37.085Z,4.57
2022-12-27T18:48:22.866Z,5.53
2022-12-27T18:51:09.276Z,4.90
2022-12-27T18:53:54.430Z,4.65
2022-12-27T18:56:41.850Z,4.50
2022-12-27T18:59:30.057Z,4.28
2022-12-27T19:02:36.230Z,4.22
2022-12-27T19:05:21.897Z,4.60
2022-12-27T19:08:12.507Z,4.15
2022-12-27T19:10:57.990Z,4.40
2022-12-27T19:13:51.775Z,4.25
2022-12-27T19:16:37.140Z,4.18
2022-12-27T19:19:32.406Z,3.88
2022-12-27T19:22:46.977Z,3.78
2022-12-27T19:25:34.921Z,4.45
2022-12-27T19:28:26.261Z,4.18
2022-12-27T19:31:19.440Z,3.80
2022-12-27T19:34:10.393Z,5.15
2022-12-27T19:36:56.180Z,5.78
2022-12-27T19:39:41.917Z,5.72
2022-12-27T19:42:30.291Z,5.03
2022-12-27T19:45:16.897Z,4.32
2022-12-27T19:48:02.368Z,4.55
2022-12-27T19:50:50.891Z,5.15
2022-12-27T19:53:40.292Z,6.57
2022-12-27T19:56:25.915Z,6.85
2022-12-27T19:59:21.144Z,4.20
2022-12-27T20:02:06.770Z,4.70
2022-12-27T20:04:52.556Z,4.20
2022-12-27T20:07:38.516Z,4.30
2022-12-27T20:10:23.835Z,3.50
2022-12-27T20:13:09.534Z,4.00
2022-12-27T20:15:56.115Z,4.70
2022-12-27T20:18:43.119Z,4.53
2022-12-27T20:21:28.955Z,4.88
2022-12-27T20:24:14.658Z,4.57
2022-12-27T20:26:59.977Z,3.75
2022-12-27T20:29:46.763Z,4.50
2022-12-27T20:32:35.391Z,4.78
2022-12-27T20:35:25.298Z,4.57
2022-12-27T20:38:12.605Z,4.13
2022-12-27T20:41:10.106Z,4.28
2022-12-27T20:44:01.519Z,5.57
2022-12-27T20:46:47.831Z,5.07
2022-12-27T20:49:34.909Z,4.88
2022-12-27T20:52:24.299Z,5.22
2022-12-27T20:55:12.894Z,4.93
2022-12-27T20:58:02.447Z,5.45
2022-12-27T21:00:47.780Z,5.05
2022-12-27T21:03:33.035Z,5.38
2022-12-27T21:06:29.193Z,3.97
2022-12-27T21:09:14.740Z,4.07
2022-12-27T21:12:00.662Z,4.55
2022-12-27T21:14:47.745Z,4.70
2022-12-27T21:17:36.316Z,5.38
2022-12-27T21:20:22.457Z,5.30
2022-12-27T21:23:07.484Z,4.80
2022-12-27T21:25:53.295Z,4.20
2022-12-27T21:28:39.440Z,4.00
2022-12-27T21:31:25.231Z,4.05
2022-12-27T21:34:10.727Z,3.97
2022-12-27T21:36:56.659Z,4.18
2022-12-27T21:39:42.580Z,4.18
2022-12-27T21:42:28.052Z,3.85
2022-12-27T21:45:13.557Z,3.63
2022-12-27T21:47:59.080Z,3.88
2022-12-27T21:50:45.426Z,3.40
2022-12-27T21:53:31.078Z,4.50
2022-12-27T21:56:16.877Z,3.75
2022-12-27T21:59:05.449Z,4.28
2022-12-27T22:01:52.391Z,4.00
2022-12-27T22:04:37.971Z,4.05
2022-12-27T22:07:23.775Z,3.55
2022-12-27T22:10:09.088Z,3.30
2022-12-27T22:12:56.037Z,3.38
2022-12-27T22:15:41.343Z,4.00
2022-12-27T22:18:30.270Z,4.28
2022-12-27T22:21:19.675Z,3.65
2022-12-27T22:24:05.544Z,3.85
2022-12-27T22:26:50.852Z,4.03
2022-12-27T22:29:36.563Z,4.43
2022-12-27T22:32:22.075Z,3.92
2022-12-27T22:35:07.827Z,3.85
2022-12-27T22:37:53.004Z,4.35
2022-12-27T22:40:45.775Z,4.03
2022-12-27T22:43:32.398Z,3.92
2022-12-27T22:46:18.815Z,3.88
2022-12-27T22:49:04.907Z,4.03
2022-12-27T22:51:50.183Z,3.75
2022-12-27T22:55:04.617Z,4.40
2022-12-27T22:57:41.364Z,4.43
2022-12-27T23:00:26.980Z,3.83
2022-12-27T23:03:12.459Z,4.35
2022-12-27T23:05:59.527Z,4.03
2022-12-27T23:08:45.128Z,4.43
2022-12-27T23:11:33.024Z,3.80
2022-12-27T23:14:18.252Z,4.35
2022-12-27T23:17:03.877Z,4.60
2022-12-27T23:19:49.383Z,5.05
2022-12-27T23:22:34.609Z,4.18
2022-12-27T23:25:20.969Z,4.70
2022-12-27T23:28:06.083Z,4.40
2022-12-27T23:30:51.608Z,4.53
2022-12-27T23:33:37.975Z,4.15
2022-12-27T23:36:23.936Z,4.32
2022-12-27T23:39:09.262Z,4.60
2022-12-27T23:41:55.158Z,4.18
2022-12-27T23:44:40.844Z,5.00
2022-12-27T23:47:26.372Z,4.75
2022-12-27T23:50:17.379Z,5.03
2022-12-27T23:53:06.823Z,4.13
2022-12-27T23:55:57.081Z,4.20
2022-12-27T23:58:42.786Z,4.45
